Time;durP1;ratioP1;P1;durP2;ratioP2;P2;SDS_P1;SDS_P2;PMS_P1;PMS_P2;Temp;Humidity;BMP_temperature;BMP_pressure;BME280_temperature;BME280_humidity;BME280_pressure;Samples;Min_cycle;Max_cycle;Signal;HPM_P1;HPM_P2
2022/08/23 00:00:47;;;;;;;6.50;4.40;;;;;;;26.12;57.67;98099.41;5046320;28;20424;-77
2022/08/23 00:03:13;;;;;;;9.88;4.50;;;;;;;26.05;57.20;98085.34;5014269;28;20040;-77
2022/08/23 00:05:39;;;;;;;11.93;4.35;;;;;;;26.03;57.15;98082.91;5012927;28;20121;-77
2022/08/23 00:08:04;;;;;;;6.45;4.22;;;;;;;26.05;57.20;98086.16;5013225;28;20073;-77
2022/08/23 00:10:31;;;;;;;6.35;4.30;;;;;;;26.02;57.24;98075.91;5014184;28;20037;-77
2022/08/23 00:12:56;;;;;;;6.57;4.15;;;;;;;25.96;57.57;98076.81;5013062;28;20414;-77
2022/08/23 00:15:22;;;;;;;8.15;4.45;;;;;;;25.99;57.34;98087.88;5013029;28;20026;-77
2022/08/23 00:17:47;;;;;;;8.57;4.18;;;;;;;26.02;57.32;98083.13;5029443;28;20401;-77
2022/08/23 00:20:14;;;;;;;11.25;4.05;;;;;;;26.00;57.14;98088.72;5029468;28;20034;-78
2022/08/23 00:22:40;;;;;;;9.30;4.20;;;;;;;25.98;57.27;98083.59;5012738;28;20030;-78
2022/08/23 00:25:08;;;;;;;9.68;4.03;;;;;;;25.98;57.04;98077.41;5045786;28;20022;-77
2022/08/23 00:27:33;;;;;;;5.90;3.80;;;;;;;26.00;56.92;98081.50;5029122;28;20030;-77
2022/08/23 00:29:59;;;;;;;11.00;4.07;;;;;;;25.94;57.08;98082.41;5012473;28;20030;-77
2022/08/23 00:32:27;;;;;;;10.70;4.10;;;;;;;25.96;57.13;98085.63;5012809;28;20070;-78
2022/08/23 00:34:53;;;;;;;6.18;4.00;;;;;;;25.94;57.48;98085.06;5028835;28;20041;-77
2022/08/23 00:37:19;;;;;;;11.48;4.35;;;;;;;25.90;57.07;98083.91;5012200;28;20409;-77
2022/08/23 00:39:44;;;;;;;5.75;4.20;;;;;;;25.90;57.39;98096.47;5029143;28;20072;-77
2022/08/23 00:47:42;;;;;;;8.65;4.13;;;;;;;25.81;57.47;98094.13;5026905;28;20056;-77
2022/08/23 00:50:16;;;;;;;12.82;4.05;;;;;;;25.83;57.30;98096.56;5037102;28;20469;-77
2022/08/23 00:53:03;;;;;;;6.35;3.88;;;;;;;25.77;57.32;98084.94;5031982;28;20091;-77
2022/08/23 00:55:28;;;;;;;9.00;4.45;;;;;;;25.80;57.02;98087.16;5032236;28;20033;-77
2022/08/23 00:57:54;;;;;;;11.55;4.30;;;;;;;25.78;57.32;98086.56;5015275;28;20501;-77
2022/08/23 01:00:19;;;;;;;7.03;3.95;;;;;;;25.79;56.95;98090.06;5015639;28;20029;-77
2022/08/23 01:02:45;;;;;;;8.68;3.80;;;;;;;25.77;57.08;98087.59;5031667;28;20112;-77
2022/08/23 01:05:10;;;;;;;6.47;3.80;;;;;;;25.81;57.21;98098.69;5015365;28;20049;-77
2022/08/23 01:07:48;;;;;;;6.65;3.85;;;;;;;25.77;57.30;98095.63;4998313;28;20063;-77
2022/08/23 01:10:26;;;;;;;;;;;;;;;25.82;57.11;98108.31;5016163;28;20083;-77
2022/08/23 01:12:58;;;;;;;5.47;3.85;;;;;;;25.78;56.93;98107.16;5032812;28;19913;-77
2022/08/23 01:15:36;;;;;;;13.82;4.38;;;;;;;25.77;56.96;98102.84;5031864;28;20026;-77
2022/08/23 01:18:06;;;;;;;5.47;4.32;;;;;;;25.78;57.27;98105.28;5031720;28;20415;-77
2022/08/23 01:20:37;;;;;;;8.90;4.40;;;;;;;25.73;57.23;98102.50;4999554;28;20576;-77
2022/08/23 01:23:27;;;;;;;9.77;4.13;;;;;;;25.74;56.98;98112.13;5031376;28;20116;-79
2022/08/23 01:25:52;;;;;;;10.07;4.15;;;;;;;25.71;57.05;98111.78;5014968;28;20028;-74
2022/08/23 01:28:18;;;;;;;5.03;3.70;;;;;;;25.69;57.22;98121.91;5014754;28;20033;-74
2022/08/23 01:30:45;;;;;;;8.48;4.03;;;;;;;25.73;56.93;98123.03;5015214;28;20037;-74
2022/08/23 01:33:10;;;;;;;8.25;4.25;;;;;;;25.70;57.05;98127.00;5015445;28;20041;-74
2022/08/23 01:35:41;;;;;;;8.18;4.35;;;;;;;25.66;56.94;98117.81;5031436;28;20026;-74
2022/08/23 01:38:07;;;;;;;12.60;4.10;;;;;;;25.68;56.88;98118.41;5014874;28;20105;-74
2022/08/23 01:40:33;;;;;;;10.52;4.60;;;;;;;25.66;57.01;98117.00;5014942;28;20464;-74
2022/08/23 01:42:59;;;;;;;9.48;4.30;;;;;;;25.63;56.94;98116.44;5014411;28;20037;-74
2022/08/23 01:45:24;;;;;;;4.75;3.80;;;;;;;25.65;57.14;98113.53;5014933;28;20041;-74
2022/08/23 01:47:50;;;;;;;12.80;4.60;;;;;;;25.67;57.37;98119.44;5015161;28;20115;-74
2022/08/23 01:50:15;;;;;;;7.47;3.83;;;;;;;25.69;56.99;98127.25;5031281;28;20108;-74
2022/08/23 01:52:41;;;;;;;6.82;4.18;;;;;;;25.70;56.74;98115.53;5030797;28;20077;-74
2022/08/23 01:55:06;;;;;;;9.00;4.25;;;;;;;25.69;56.74;98120.03;5031142;28;20405;-74
2022/08/23 01:57:32;;;;;;;9.88;4.05;;;;;;;25.71;57.14;98119.78;5030337;28;20056;-74
2022/08/23 01:59:58;;;;;;;7.20;4.20;;;;;;;25.71;57.01;98125.16;5014949;28;20057;-74
2022/08/23 02:02:24;;;;;;;8.68;4.53;;;;;;;25.71;56.64;98109.91;4998178;28;20033;-74
2022/08/23 02:04:50;;;;;;;7.93;3.85;;;;;;;25.70;56.65;98105.63;5030590;28;20064;-74
2022/08/23 02:07:15;;;;;;;5.53;3.90;;;;;;;25.76;56.65;98109.22;5014123;28;20488;-75
2022/08/23 02:09:41;;;;;;;8.43;4.28;;;;;;;25.76;56.55;98106.56;5031945;28;20036;-74
2022/08/23 02:12:06;;;;;;;5.80;4.00;;;;;;;25.73;56.83;98104.34;5032120;28;20029;-74
2022/08/23 02:14:32;;;;;;;7.15;4.00;;;;;;;25.77;56.76;98110.88;5030728;28;20025;-73
2022/08/23 02:16:57;;;;;;;8.70;4.35;;;;;;;25.76;56.47;98110.06;5030749;28;20076;-73
2022/08/23 02:19:23;;;;;;;6.35;4.30;;;;;;;25.75;56.76;98112.97;5032518;28;20053;-73
2022/08/23 02:21:49;;;;;;;6.15;4.15;;;;;;;25.73;56.96;98112.34;5001755;28;20167;-74
2022/08/23 02:24:22;;;;;;;5.57;4.00;;;;;;;25.69;56.60;98100.50;5034914;28;20021;-73
2022/08/23 02:26:52;;;;;;;6.65;4.30;;;;;;;25.70;56.65;98105.63;5034599;28;20037;-73
2022/08/23 02:29:19;;;;;;;7.28;4.45;;;;;;;25.68;56.73;98107.72;5034733;28;20030;-73
2022/08/23 02:31:44;;;;;;;8.35;3.92;;;;;;;25.67;56.76;98103.41;5034774;28;20025;-74
2022/08/23 02:34:11;;;;;;;5.57;4.38;;;;;;;25.62;56.83;98098.75;5018275;28;20037;-73
2022/08/23 02:36:36;;;;;;;8.43;4.30;;;;;;;25.64;56.95;98103.88;5034590;28;20029;-74
2022/08/23 02:39:02;;;;;;;7.95;4.13;;;;;;;25.68;56.98;98107.72;5033526;28;20492;-74
2022/08/23 02:41:28;;;;;;;6.72;4.25;;;;;;;25.64;56.61;98106.56;5018260;28;20053;-73
2022/08/23 02:43:54;;;;;;;6.90;4.40;;;;;;;25.63;56.52;98110.25;5034791;28;20029;-73
2022/08/23 02:46:20;;;;;;;7.68;4.30;;;;;;;25.64;56.63;98111.91;5018294;28;20032;-73
2022/08/23 02:48:45;;;;;;;8.02;4.38;;;;;;;25.67;56.55;98116.78;5017688;28;20133;-74
2022/08/23 02:51:11;;;;;;;5.28;3.80;;;;;;;25.65;56.77;98121.56;5018244;28;20121;-73
2022/08/23 02:53:36;;;;;;;8.35;4.32;;;;;;;25.67;56.49;98118.66;5034191;28;20056;-74
2022/08/23 02:56:02;;;;;;;8.68;4.00;;;;;;;25.65;56.40;98126.91;5017532;28;20068;-74
2022/08/23 02:58:28;;;;;;;7.20;4.25;;;;;;;25.69;56.50;98129.91;5017397;28;20045;-74
2022/08/23 03:00:53;;;;;;;7.72;4.15;;;;;;;25.68;56.65;98131.78;5034274;28;20029;-73
2022/08/23 03:03:20;;;;;;;5.15;4.32;;;;;;;25.69;56.57;98127.25;5034134;28;20065;-74
2022/08/23 03:05:45;;;;;;;5.80;3.97;;;;;;;25.69;56.65;98132.59;5017757;28;20160;-74
2022/08/23 03:08:11;;;;;;;6.03;4.00;;;;;;;25.68;56.48;98122.94;5017299;28;20029;-74
2022/08/23 03:10:41;;;;;;;6.80;4.22;;;;;;;25.68;56.55;98129.09;5017233;28;20026;-73
2022/08/23 03:13:06;;;;;;;10.82;4.00;;;;;;;25.66;56.48;98135.72;5017186;28;20511;-74
2022/08/23 03:15:32;;;;;;;6.63;4.00;;;;;;;25.66;56.40;98138.38;5033742;28;20033;-73
2022/08/23 03:17:58;;;;;;;8.40;4.35;;;;;;;25.64;56.28;98144.78;5033375;28;20104;-74
2022/08/23 03:20:23;;;;;;;7.70;4.35;;;;;;;25.60;56.26;98151.63;5017369;28;20480;-74
2022/08/23 03:22:49;;;;;;;6.25;4.28;;;;;;;25.58;56.52;98152.91;5017217;28;20107;-74
2022/08/23 03:25:14;;;;;;;9.70;4.10;;;;;;;25.59;56.39;98165.22;5017034;28;20026;-74
2022/08/23 03:27:40;;;;;;;7.57;4.10;;;;;;;25.59;56.37;98163.34;5035023;28;20072;-74
2022/08/23 03:30:06;;;;;;;9.07;4.10;;;;;;;25.60;56.19;98166.84;5000213;28;20080;-74
2022/08/23 03:32:31;;;;;;;7.40;4.28;;;;;;;25.62;56.05;98165.56;5034738;28;20044;-74
2022/08/23 03:34:57;;;;;;;7.45;4.47;;;;;;;25.64;55.85;98163.47;5017188;28;20033;-74
2022/08/23 03:37:22;;;;;;;5.97;3.90;;;;;;;25.67;56.14;98162.22;5016817;28;20543;-73
2022/08/23 03:39:48;;;;;;;6.25;4.30;;;;;;;25.70;55.67;98161.75;5016523;28;20029;-74
2022/08/23 03:42:14;;;;;;;4.82;3.90;;;;;;;25.82;55.63;98161.75;5001018;28;20067;-73
2022/08/23 03:44:40;;;;;;;6.18;3.97;;;;;;;25.95;55.15;98161.56;5033368;28;20029;-73
2022/08/23 03:47:05;;;;;;;6.10;4.07;;;;;;;26.15;54.47;98169.28;5016903;28;20511;-73
2022/08/23 03:49:31;;;;;;;6.97;3.85;;;;;;;26.26;53.63;98159.63;5032832;28;20026;-73
2022/08/23 03:51:59;;;;;;;6.88;4.15;;;;;;;26.48;53.47;98162.53;5016397;28;20034;-73
2022/08/23 03:54:25;;;;;;;7.60;3.85;;;;;;;26.71;52.70;98159.03;5032811;28;20056;-73
2022/08/23 03:56:52;;;;;;;6.32;4.18;;;;;;;27.08;51.91;98160.56;5032979;28;20049;-74
2022/08/23 03:59:18;;;;;;;7.32;3.90;;;;;;;27.39;51.44;98156.63;5033349;28;20075;-75
2022/08/23 04:01:43;;;;;;;6.93;3.80;;;;;;;27.70;50.39;98164.38;5032992;28;20037;-74
2022/08/23 04:04:09;;;;;;;5.90;3.47;;;;;;;28.02;49.76;98156.63;5032957;28;20497;-74
2022/08/23 04:06:35;;;;;;;5.55;3.40;;;;;;;28.34;48.89;98161.41;5032507;28;20106;-74
2022/08/23 04:09:00;;;;;;;8.43;3.88;;;;;;;28.59;48.19;98154.78;5032816;28;20034;-74
2022/08/23 04:11:26;;;;;;;8.30;3.83;;;;;;;28.62;48.18;98149.75;5032659;28;20037;-74
2022/08/23 04:13:52;;;;;;;8.13;3.70;;;;;;;29.05;47.33;98147.28;5032737;28;20112;-74
2022/08/23 04:16:20;;;;;;;9.30;3.83;;;;;;;28.72;47.82;98138.31;5033064;28;20034;-74
2022/08/23 04:18:46;;;;;;;8.07;3.90;;;;;;;28.48;48.87;98146.56;5032765;28;20018;-74
2022/08/23 04:21:13;;;;;;;6.35;3.50;;;;;;;28.57;48.90;98143.44;5015623;28;20179;-74
2022/08/23 04:23:39;;;;;;;8.30;3.70;;;;;;;28.82;47.67;98140.31;5016096;28;20056;-74
2022/08/23 04:26:05;;;;;;;7.55;4.07;;;;;;;29.26;46.88;98145.66;5032310;28;20037;-74
2022/08/23 04:28:31;;;;;;;9.05;3.60;;;;;;;29.74;45.94;98160.06;4999911;28;20458;-74
2022/08/23 04:30:59;;;;;;;10.48;3.70;;;;;;;30.28;44.68;98158.34;4995903;28;20100;-74
2022/08/23 04:33:27;;;;;;;9.02;3.33;;;;;;;31.03;42.98;98148.25;5028822;28;20052;-74
2022/08/23 04:35:53;;;;;;;4.95;3.40;;;;;;;31.63;41.52;98147.84;5012620;28;20034;-74
2022/08/23 04:38:18;;;;;;;10.77;3.28;;;;;;;32.18;40.94;98152.69;5045279;28;20022;-75
2022/08/23 04:43:27;;;;;;;9.55;3.50;;;;;;;31.58;41.73;98163.22;5025960;28;20553;-75
2022/08/23 04:45:53;;;;;;;6.88;2.90;;;;;;;31.27;42.62;98165.84;5029157;28;20034;-75
2022/08/23 04:48:18;;;;;;;7.82;3.40;;;;;;;31.60;41.27;98174.56;5012193;28;20069;-75
2022/08/23 04:50:44;;;;;;;8.80;3.33;;;;;;;31.71;41.26;98170.78;5045336;28;20041;-75
2022/08/23 04:53:10;;;;;;;9.50;3.83;;;;;;;32.09;40.19;98176.75;5028663;28;20033;-75
2022/08/23 04:55:36;;;;;;;7.78;3.85;;;;;;;32.35;38.95;98176.69;5013358;28;20030;-71
2022/08/23 04:58:03;;;;;;;14.02;4.03;;;;;;;32.27;38.52;98178.88;5011659;28;20050;-72
2022/08/23 05:00:28;;;;;;;11.60;4.82;;;;;;;32.50;37.80;98183.94;5012195;28;20099;-71
2022/08/23 05:02:54;;;;;;;11.82;4.15;;;;;;;32.94;37.51;98192.22;5045124;28;20465;-70
2022/08/23 05:05:19;;;;;;;14.52;4.45;;;;;;;33.76;35.79;98195.59;5028704;28;20030;-72
2022/08/23 05:07:45;;;;;;;12.65;4.93;;;;;;;34.21;34.51;98199.00;5015081;28;20481;-71
2022/08/23 05:10:12;;;;;;;20.45;7.65;;;;;;;34.46;34.14;98208.81;5015509;28;20037;-71
2022/08/23 05:12:38;;;;;;;21.00;7.27;;;;;;;34.79;33.77;98206.28;5015108;28;20089;-72
2022/08/23 05:15:04;;;;;;;28.70;8.07;;;;;;;35.31;32.75;98207.31;5031424;28;20041;-71
2022/08/23 05:17:29;;;;;;;30.80;8.32;;;;;;;35.83;31.94;98199.22;5015086;28;20028;-71
2022/08/23 05:19:55;;;;;;;33.63;10.57;;;;;;;36.34;31.54;98202.19;5014583;28;20033;-70
2022/08/23 05:22:20;;;;;;;28.15;10.05;;;;;;;36.55;30.45;98200.72;5014833;28;20087;-72
2022/08/23 05:24:46;;;;;;;25.20;9.05;;;;;;;37.25;30.12;98208.88;5014929;28;20111;-78
2022/08/23 05:27:11;;;;;;;27.92;9.13;;;;;;;38.13;28.38;98207.63;4998647;28;20404;-76
2022/08/23 05:29:39;;;;;;;23.95;8.85;;;;;;;38.86;27.72;98219.09;5018857;28;20029;-87
2022/08/23 05:32:05;;;;;;;28.45;8.63;;;;;;;39.40;27.29;98213.41;5019300;28;20031;-82
2022/08/23 05:34:30;;;;;;;21.48;8.70;;;;;;;39.90;26.71;98214.06;5013133;28;20037;-82
2022/08/23 05:36:56;;;;;;;26.58;8.50;;;;;;;40.40;25.89;98204.47;5030139;28;20112;-82
2022/08/23 05:39:21;;;;;;;19.85;7.22;;;;;;;40.79;25.41;98197.88;5015078;28;20084;-84
2022/08/23 05:41:47;;;;;;;20.15;6.97;;;;;;;41.17;24.50;98199.78;5036478;28;20073;-84
2022/08/23 05:44:13;;;;;;;18.63;6.35;;;;;;;41.52;23.78;98194.03;5031321;28;20096;-79
2022/08/23 05:46:38;;;;;;;25.35;6.40;;;;;;;41.86;23.97;98192.16;5032612;28;20057;-85
2022/08/23 05:49:04;;;;;;;14.13;6.50;;;;;;;42.15;23.62;98204.13;5032338;28;20531;-86
2022/08/23 05:51:31;;;;;;;22.33;6.03;;;;;;;42.44;23.21;98202.34;5021009;28;20059;-78
2022/08/23 05:53:57;;;;;;;;;;;;;;;42.62;22.93;98203.75;5040612;28;20021;-93
2022/08/23 05:56:26;;;;;;;17.42;5.72;;;;;;;42.99;22.63;98206.50;5042394;28;20304;-91
2022/08/23 05:58:54;;;;;;;14.27;5.22;;;;;;;43.24;22.39;98205.63;5017557;28;20519;-83
2022/08/23 06:01:20;;;;;;;15.65;5.28;;;;;;;43.46;22.05;98212.56;5029999;28;20040;-86
2022/08/23 06:03:45;;;;;;;18.10;5.10;;;;;;;43.62;21.50;98220.88;4998314;28;20116;-87
2022/08/23 06:06:11;;;;;;;12.43;4.57;;;;;;;43.77;21.52;98231.13;5014201;28;20041;-83
2022/08/23 06:08:38;;;;;;;12.48;4.40;;;;;;;43.88;21.51;98225.94;5029651;28;20067;-82
2022/08/23 06:11:12;;;;;;;13.73;4.60;;;;;;;43.98;21.44;98235.63;4996283;28;20057;-83
2022/08/23 06:13:40;;;;;;;10.70;4.25;;;;;;;44.10;21.45;98235.56;5036108;28;20034;-79
2022/08/23 06:16:06;;;;;;;11.43;3.85;;;;;;;44.15;20.81;98234.53;5019258;28;20054;-73
2022/08/23 06:18:31;;;;;;;9.37;3.97;;;;;;;44.24;20.54;98235.97;4996662;28;20033;-75
2022/08/23 06:21:06;;;;;;;16.87;4.80;;;;;;;44.02;21.01;98226.34;5012915;28;20478;-75
2022/08/23 06:23:32;;;;;;;13.57;4.03;;;;;;;43.71;20.95;98241.59;5029202;28;20113;-75
2022/08/23 06:26:00;;;;;;;9.53;3.63;;;;;;;42.48;22.22;98238.94;5028907;28;20179;-76
2022/08/23 06:28:27;;;;;;;14.73;4.20;;;;;;;41.52;23.32;98246.09;5012836;28;20028;-74
2022/08/23 06:30:56;;;;;;;11.55;4.30;;;;;;;40.37;24.24;98241.47;5013550;28;20079;-78
2022/08/23 06:33:22;;;;;;;14.68;4.80;;;;;;;39.26;25.79;98237.34;5012414;28;20029;-75
2022/08/23 06:35:48;;;;;;;10.98;4.72;;;;;;;38.28;27.31;98244.63;5013198;28;20053;-77
2022/08/23 06:38:13;;;;;;;12.48;4.75;;;;;;;37.36;29.03;98244.84;4996503;28;20476;-74
2022/08/23 06:40:40;;;;;;;13.05;5.25;;;;;;;36.61;30.18;98250.38;5012868;28;20164;-75
2022/08/23 06:43:07;;;;;;;15.25;5.28;;;;;;;35.95;31.46;98255.00;5013034;28;20231;-73
2022/08/23 06:45:33;;;;;;;12.63;4.85;;;;;;;35.37;32.50;98264.22;5029128;28;20032;-73
2022/08/23 06:47:58;;;;;;;14.95;5.30;;;;;;;34.71;33.61;98261.13;5030510;28;20037;-74
2022/08/23 06:50:24;;;;;;;12.48;5.25;;;;;;;34.20;34.65;98274.00;4997733;28;20037;-73
2022/08/23 06:52:51;;;;;;;9.93;5.13;;;;;;;33.79;35.65;98274.31;5014202;28;20087;-72
2022/08/23 06:55:17;;;;;;;8.27;4.90;;;;;;;33.42;35.78;98272.09;5028813;28;20258;-72
2022/08/23 06:57:42;;;;;;;14.95;5.43;;;;;;;32.97;37.10;98272.78;5012732;28;20046;-73
2022/08/23 07:00:10;;;;;;;10.30;4.90;;;;;;;32.77;37.67;98281.72;5013748;28;20033;-71
2022/08/23 07:02:36;;;;;;;11.43;5.80;;;;;;;32.44;38.16;98281.19;5031656;28;20022;-71
2022/08/23 07:05:02;;;;;;;11.52;5.00;;;;;;;32.27;38.79;98286.88;5031608;28;20036;-72
2022/08/23 07:07:28;;;;;;;12.38;5.43;;;;;;;32.30;38.86;98282.03;5017763;28;20041;-72
2022/08/23 07:09:53;;;;;;;9.15;5.30;;;;;;;32.44;38.74;98277.69;5033984;28;20029;-72
2022/08/23 07:12:19;;;;;;;8.38;4.95;;;;;;;32.67;38.45;98278.25;5034473;28;20087;-73
2022/08/23 07:14:45;;;;;;;8.30;4.95;;;;;;;33.05;37.81;98294.91;5033988;28;20029;-72
2022/08/23 07:17:11;;;;;;;10.00;5.60;;;;;;;32.91;37.71;98290.09;5017495;28;20396;-72
2022/08/23 07:19:37;;;;;;;9.38;5.40;;;;;;;32.82;38.28;98302.53;5017526;28;20033;-71
2022/08/23 07:22:03;;;;;;;9.23;5.35;;;;;;;32.83;38.28;98290.66;5033828;28;20100;-72
2022/08/23 07:24:30;;;;;;;11.65;5.45;;;;;;;32.89;38.38;98294.94;5016930;28;20107;-72
2022/08/23 07:26:55;;;;;;;9.35;5.22;;;;;;;33.04;37.77;98309.53;5017879;28;20172;-72
2022/08/23 07:29:21;;;;;;;12.73;5.50;;;;;;;33.19;37.34;98304.06;5017396;28;20481;-71
2022/08/23 07:31:49;;;;;;;11.07;5.28;;;;;;;33.35;37.49;98311.06;5000817;28;20025;-71
2022/08/23 07:34:14;;;;;;;12.35;5.32;;;;;;;33.35;37.38;98308.34;5000830;28;20029;-72
2022/08/23 07:36:41;;;;;;;10.38;5.75;;;;;;;33.36;37.17;98318.06;5016983;28;20076;-71
2022/08/23 07:39:07;;;;;;;10.13;6.57;;;;;;;33.39;37.42;98308.59;5033139;28;20098;-71
2022/08/23 07:41:33;;;;;;;13.15;6.43;;;;;;;33.58;37.12;98316.91;5000754;28;20128;-71
2022/08/23 07:44:02;;;;;;;11.13;6.18;;;;;;;34.22;35.97;98317.06;5017039;28;20030;-72
2022/08/23 07:46:29;;;;;;;10.00;7.10;;;;;;;34.82;34.60;98329.63;5033162;28;20028;-72
2022/08/23 07:48:56;;;;;;;11.25;6.75;;;;;;;35.80;33.41;98323.91;5033216;28;20099;-71
2022/08/23 07:51:22;;;;;;;9.45;6.72;;;;;;;36.58;32.39;98313.47;5033275;28;20036;-71
2022/08/23 07:53:48;;;;;;;11.98;7.50;;;;;;;37.27;31.35;98316.31;5000207;28;20041;-72
2022/08/23 07:56:14;;;;;;;11.45;7.30;;;;;;;37.88;30.54;98305.22;5033217;28;20052;-71
2022/08/23 07:58:40;;;;;;;12.50;7.43;;;;;;;38.51;29.37;98302.66;5016476;28;20053;-72
2022/08/23 08:01:14;;;;;;;13.32;7.68;;;;;;;39.13;28.62;98310.03;5032986;28;20041;-72
2022/08/23 08:03:44;;;;;;;16.38;7.60;;;;;;;39.70;28.07;98305.69;5001169;28;20030;-73
2022/08/23 08:06:11;;;;;;;12.32;7.53;;;;;;;40.22;27.26;98305.69;5032642;28;20025;-72
2022/08/23 08:08:37;;;;;;;;;;;;;;;40.65;25.77;98309.47;5034163;28;20107;-72
2022/08/23 08:11:03;;;;;;;13.30;8.73;;;;;;;41.00;25.26;98301.94;5016391;28;20364;-72
2022/08/23 08:13:28;;;;;;;9.68;8.07;;;;;;;41.37;24.95;98296.78;5016553;28;20094;-72
2022/08/23 08:15:54;;;;;;;15.77;8.63;;;;;;;41.61;23.96;98298.06;5032902;28;20117;-72
2022/08/23 08:18:19;;;;;;;14.35;9.07;;;;;;;41.88;24.03;98299.50;5016128;28;20041;-72
2022/08/23 08:20:45;;;;;;;12.43;8.35;;;;;;;42.07;23.34;98311.91;5032802;28;20084;-72
2022/08/23 08:23:10;;;;;;;12.93;8.27;;;;;;;41.74;23.35;98313.47;5016014;28;20037;-72
2022/08/23 08:25:36;;;;;;;12.90;8.73;;;;;;;41.00;24.44;98317.56;5033360;28;20029;-72
2022/08/23 08:28:02;;;;;;;12.85;8.23;;;;;;;40.44;24.99;98317.59;5016033;28;20046;-72
2022/08/23 08:30:27;;;;;;;13.40;7.93;;;;;;;40.04;25.95;98310.34;4999598;28;20366;-74
2022/08/23 08:32:53;;;;;;;16.67;8.63;;;;;;;39.85;26.25;98307.13;4999660;28;20088;-72
2022/08/23 08:35:18;;;;;;;19.02;9.02;;;;;;;40.50;25.75;98316.25;5032705;28;20033;-72
2022/08/23 08:37:45;;;;;;;14.15;8.70;;;;;;;40.55;26.09;98310.63;4998995;28;20026;-72
2022/08/23 08:40:10;;;;;;;11.73;8.70;;;;;;;40.83;25.18;98302.81;5032447;28;20033;-72
2022/08/23 08:43:07;;;;;;;10.27;8.18;;;;;;;40.99;25.03;98302.28;5032491;28;20039;-73
2022/08/23 08:45:37;;;;;;;;;;;;;;;41.06;25.14;98294.38;5034070;28;20040;-72
2022/08/23 08:48:05;;;;;;;11.75;8.10;;;;;;;40.72;25.49;98298.03;5015479;28;19948;-72
2022/08/23 08:50:41;;;;;;;15.27;8.68;;;;;;;40.27;26.09;98299.25;4999399;28;20381;-72
2022/08/23 08:53:12;;;;;;;13.57;8.00;;;;;;;40.72;25.23;98296.06;5015893;28;20037;-73
2022/08/23 08:55:50;;;;;;;12.13;7.88;;;;;;;40.91;24.85;98289.44;5016701;28;20036;-73
2022/08/23 08:58:29;;;;;;;12.82;7.82;;;;;;;41.08;24.38;98288.56;5000387;28;20073;-75
2022/08/23 09:00:54;;;;;;;8.70;7.40;;;;;;;41.26;24.16;98289.25;5015467;28;20065;-71
2022/08/23 09:03:20;;;;;;;9.35;7.07;;;;;;;41.28;24.10;98289.75;5031831;28;20138;-72
2022/08/23 09:05:56;;;;;;;10.55;7.20;;;;;;;41.34;24.09;98296.63;5015644;28;20060;-72
2022/08/23 09:08:34;;;;;;;8.80;7.28;;;;;;;41.33;23.83;98284.09;5031739;28;20067;-73
2022/08/23 09:11:27;;;;;;;9.85;6.97;;;;;;;41.36;23.75;98291.66;5015909;28;20108;-73
2022/08/23 09:13:56;;;;;;;12.38;7.10;;;;;;;41.34;24.03;98294.72;5002024;28;20100;-72
2022/08/23 09:16:29;;;;;;;9.40;7.15;;;;;;;41.34;23.77;98282.94;5015077;28;20515;-72
2022/08/23 09:18:54;;;;;;;8.82;6.65;;;;;;;41.37;23.75;98279.53;5015044;28;20037;-73
2022/08/23 09:21:20;;;;;;;9.35;6.80;;;;;;;41.37;23.93;98282.28;5015014;28;20495;-72
2022/08/23 09:23:46;;;;;;;9.07;6.68;;;;;;;41.34;23.76;98285.69;5015040;28;20520;-72
2022/08/23 09:26:26;;;;;;;8.90;6.32;;;;;;;41.19;23.79;98287.84;5015017;28;20025;-72
2022/08/23 09:29:02;;;;;;;9.93;6.25;;;;;;;41.18;23.94;98285.44;5031377;28;20035;-71
2022/08/23 09:31:41;;;;;;;6.85;5.68;;;;;;;41.11;23.32;98285.97;4999351;28;20029;-72
2022/08/23 09:34:08;;;;;;;8.57;5.93;;;;;;;41.04;23.34;98289.22;5000362;28;20399;-72
2022/08/23 09:36:35;;;;;;;6.60;5.50;;;;;;;40.99;23.57;98294.06;4998636;28;20401;-72
2022/08/23 09:39:04;;;;;;;7.45;5.20;;;;;;;40.93;23.16;98284.44;5031272;28;20044;-72
2022/08/23 09:41:37;;;;;;;8.05;5.32;;;;;;;40.79;23.54;98279.97;5031670;28;20037;-72
2022/08/23 09:44:15;;;;;;;6.57;5.00;;;;;;;40.70;23.53;98276.47;5014641;28;20033;-75
2022/08/23 09:46:41;;;;;;;8.50;4.90;;;;;;;40.58;23.40;98285.38;5000130;28;20396;-72
2022/08/23 09:49:27;;;;;;;5.32;4.53;;;;;;;40.34;23.59;98299.53;5031474;28;20029;-72
2022/08/23 09:51:53;;;;;;;5.72;4.65;;;;;;;40.28;23.29;98290.72;5030972;28;20091;-72
2022/08/23 09:54:25;;;;;;;5.22;4.60;;;;;;;40.20;23.43;98286.09;4998465;28;20555;-72
2022/08/23 09:56:56;;;;;;;5.55;4.40;;;;;;;40.16;23.43;98283.16;4998480;28;20029;-72
2022/08/23 09:59:24;;;;;;;10.10;4.45;;;;;;;40.10;23.89;98281.72;4999293;28;20057;-72
2022/08/23 10:01:50;;;;;;;9.18;4.50;;;;;;;40.04;23.62;98280.28;5030978;28;20038;-72
2022/08/23 10:04:28;;;;;;;5.55;4.32;;;;;;;39.54;23.91;98270.63;4998219;28;20025;-71
2022/08/23 10:06:53;;;;;;;11.85;4.43;;;;;;;39.55;23.79;98274.16;5030650;28;20029;-73
2022/08/23 10:09:29;;;;;;;7.63;3.92;;;;;;;39.49;24.02;98276.25;5014426;28;20495;-72
2022/08/23 10:11:56;;;;;;;7.60;4.00;;;;;;;39.44;23.93;98270.91;5014546;28;20487;-71
2022/08/23 10:14:23;;;;;;;5.43;3.63;;;;;;;39.40;23.91;98269.97;5031139;28;20401;-72
2022/08/23 10:17:13;;;;;;;7.50;3.70;;;;;;;39.20;23.77;98268.63;5014401;28;20026;-72
2022/08/23 10:19:48;;;;;;;3.90;3.30;;;;;;;39.02;24.25;98265.81;5031088;28;20481;-72
2022/08/23 10:22:18;;;;;;;4.32;3.50;;;;;;;38.87;24.63;98268.97;5031857;28;20034;-72
2022/08/23 10:24:46;;;;;;;7.43;3.67;;;;;;;38.81;24.30;98270.25;5030874;28;20022;-73
2022/08/23 10:30:11;;;;;;;8.07;3.95;;;;;;;38.49;24.64;98272.97;5031622;28;20043;-72
2022/08/23 10:32:39;;;;;;;7.18;3.75;;;;;;;38.45;24.44;98280.16;5015260;28;20033;-72
2022/08/23 10:35:29;;;;;;;8.38;3.85;;;;;;;38.21;25.07;98274.22;5030688;28;20517;-72
2022/08/23 10:38:21;;;;;;;4.40;3.40;;;;;;;38.16;24.92;98265.09;5015041;28;20025;-72
2022/08/23 10:40:56;;;;;;;4.38;3.58;;;;;;;37.95;25.34;98270.19;5032828;28;20030;-71
2022/08/23 10:43:29;;;;;;;4.97;3.50;;;;;;;37.89;25.26;98266.00;5034555;28;20484;-71
2022/08/23 10:45:55;;;;;;;4.95;3.80;;;;;;;37.80;25.51;98265.91;5034583;28;20041;-72
2022/08/23 10:48:30;;;;;;;4.68;3.75;;;;;;;37.36;26.18;98261.19;5034172;28;20132;-72
2022/08/23 10:51:31;;;;;;;6.45;3.70;;;;;;;37.37;26.11;98262.75;5018249;28;20108;-72
2022/08/23 10:54:04;;;;;;;6.47;3.78;;;;;;;37.24;26.88;98265.22;5033718;28;20111;-71
2022/08/23 10:56:30;;;;;;;5.63;3.90;;;;;;;37.28;26.62;98266.22;5034101;28;20452;-72
2022/08/23 10:59:19;;;;;;;7.38;3.90;;;;;;;37.27;26.96;98272.78;5033563;28;20049;-72
2022/08/23 11:02:06;;;;;;;8.50;4.43;;;;;;;37.21;26.93;98265.84;5017616;28;20068;-71
2022/08/23 11:04:43;;;;;;;7.50;4.43;;;;;;;37.05;27.23;98261.78;5033896;28;20045;-73
2022/08/23 11:07:18;;;;;;;10.65;4.45;;;;;;;37.08;27.23;98263.88;5034052;28;20033;-73
2022/08/23 11:10:09;;;;;;;5.63;4.28;;;;;;;37.06;27.58;98268.84;5017801;28;20033;-72
2022/08/23 11:12:48;;;;;;;6.47;4.80;;;;;;;37.00;27.71;98265.41;5033098;28;20033;-73
2022/08/23 11:15:20;;;;;;;5.25;4.18;;;;;;;36.94;27.80;98261.16;5031058;28;20052;-73
2022/08/23 11:17:49;;;;;;;7.07;4.50;;;;;;;36.78;27.89;98259.88;5016137;28;20038;-72
2022/08/23 11:20:49;;;;;;;7.55;4.50;;;;;;;36.55;28.13;98265.94;5032743;28;20411;-71
2022/08/23 11:23:16;;;;;;;7.18;4.70;;;;;;;36.36;28.71;98263.31;5032807;28;20041;-74
2022/08/23 11:25:42;;;;;;;;;;;;;;;36.21;28.77;98253.47;5016179;28;20046;-75
2022/08/23 11:28:22;;;;;;;6.57;4.53;;;;;;;36.01;28.91;98234.81;5016088;28;20043;-71
2022/08/23 11:30:49;;;;;;;8.07;5.03;;;;;;;35.97;29.25;98233.78;5032393;28;20038;-73
2022/08/23 11:33:40;;;;;;;6.45;4.68;;;;;;;36.00;28.87;98242.13;5032436;28;20055;-71
2022/08/23 11:36:08;;;;;;;5.75;4.07;;;;;;;36.01;28.97;98237.53;5032573;28;20160;-72
2022/08/23 11:38:45;;;;;;;7.78;4.40;;;;;;;36.06;29.12;98237.44;5032394;28;20057;-72
2022/08/23 11:41:14;;;;;;;6.95;4.72;;;;;;;36.12;28.87;98230.81;5032006;28;20067;-73
2022/08/23 11:43:44;;;;;;;5.63;4.22;;;;;;;36.13;29.20;98235.13;5032101;28;20512;-72
2022/08/23 11:46:21;;;;;;;7.43;4.43;;;;;;;36.15;29.06;98232.94;5031693;28;20508;-72
2022/08/23 11:49:14;;;;;;;9.23;4.60;;;;;;;35.77;29.42;98241.16;5032669;28;20418;-73